Time;durP1;ratioP1;P1;durP2;ratioP2;P2;SDS_P1;SDS_P2;PMS_P1;PMS_P2;Temp;Humidity;BMP_temperature;BMP_pressure;BME280_temperature;BME280_humidity;BME280_pressure;Samples;Min_cycle;Max_cycle;Signal;HPM_P1;HPM_P2
2023/06/16 00:01:31;;;;;;;5.20;4.70;;;;;;;;;;5072930;28;20460;-64
2023/06/16 00:03:59;;;;;;;4.53;4.13;;;;;;;;;;5073099;28;20092;-64
2023/06/16 00:06:27;;;;;;;4.72;4.40;;;;;;;;;;5054804;28;20051;-64
2023/06/16 00:08:54;;;;;;;7.00;5.28;;;;;;;;;;5073208;28;20049;-65
2023/06/16 00:11:21;;;;;;;6.07;5.45;;;;;;;;;;5055152;28;20033;-64
2023/06/16 00:13:48;;;;;;;5.47;4.97;;;;;;;;;;5073156;28;20048;-64
2023/06/16 00:16:14;;;;;;;6.22;5.68;;;;;;;;;;5073334;28;20036;-64
2023/06/16 00:18:43;;;;;;;8.32;5.13;;;;;;;;;;5073140;28;20037;-63
2023/06/16 00:21:09;;;;;;;4.43;4.03;;;;;;;;;;5073060;28;20108;-64
2023/06/16 00:23:35;;;;;;;4.85;4.45;;;;;;;;;;5072832;28;20115;-64
2023/06/16 00:26:01;;;;;;;5.20;4.70;;;;;;;;;;5072696;28;20041;-64
2023/06/16 00:28:26;;;;;;;5.28;4.88;;;;;;;;;;5054942;28;20048;-64
2023/06/16 00:30:52;;;;;;;6.63;4.75;;;;;;;;;;5072818;28;20029;-64
2023/06/16 00:33:17;;;;;;;5.07;4.68;;;;;;;;;;5054772;28;20033;-61
2023/06/16 00:35:43;;;;;;;5.45;4.60;;;;;;;;;;5039794;28;20123;-61
2023/06/16 00:38:08;;;;;;;4.82;4.35;;;;;;;;;;5076297;28;20124;-61
2023/06/16 00:40:34;;;;;;;6.07;4.60;;;;;;;;;;5059222;28;20044;-61
2023/06/16 00:43:02;;;;;;;5.07;4.57;;;;;;;;;;5058478;28;20037;-61
2023/06/16 00:45:28;;;;;;;4.57;4.28;;;;;;;;;;5055093;28;20475;-61
2023/06/16 00:47:54;;;;;;;5.07;4.63;;;;;;;;;;5055039;28;20079;-65
2023/06/16 00:50:21;;;;;;;4.65;4.35;;;;;;;;;;5055071;28;20047;-65
2023/06/16 00:52:46;;;;;;;4.97;4.57;;;;;;;;;;5056477;28;20080;-65
2023/06/16 00:55:12;;;;;;;4.68;4.28;;;;;;;;;;5038236;28;20063;-66
2023/06/16 00:57:39;;;;;;;4.70;4.30;;;;;;;;;;5056127;28;20069;-66
2023/06/16 01:00:06;;;;;;;3.85;3.47;;;;;;;;;;5055335;28;20041;-61
2023/06/16 01:02:32;;;;;;;4.90;3.65;;;;;;;;;;5056384;28;20041;-61
2023/06/16 01:04:58;;;;;;;4.72;3.67;;;;;;;;;;5056296;28;20393;-61
2023/06/16 01:07:29;;;;;;;4.88;3.97;;;;;;;;;;5054949;28;20036;-61
2023/06/16 01:10:00;;;;;;;4.10;3.72;;;;;;;;;;5056224;28;20384;-62
2023/06/16 01:12:38;;;;;;;4.10;3.80;;;;;;;;;;5055879;28;20476;-61
2023/06/16 01:15:10;;;;;;;6.15;4.47;;;;;;;;;;5055765;28;20040;-61
2023/06/16 01:17:43;;;;;;;5.00;4.05;;;;;;;;;;5055530;28;20118;-61
2023/06/16 01:20:08;;;;;;;;;;;;;;;;;;5054481;28;20033;-61
2023/06/16 01:22:42;;;;;;;3.50;3.28;;;;;;;;;;5054531;28;20007;-61
2023/06/16 01:25:10;;;;;;;3.92;3.63;;;;;;;;;;5055724;28;20039;-61
2023/06/16 01:27:37;;;;;;;4.28;3.88;;;;;;;;;;5055979;28;20041;-61
2023/06/16 01:30:04;;;;;;;5.03;4.53;;;;;;;;;;5054584;28;20045;-61
2023/06/16 01:32:31;;;;;;;4.97;4.53;;;;;;;;;;5054349;28;20423;-61
2023/06/16 01:34:56;;;;;;;4.90;4.15;;;;;;;;;;5055623;28;20017;-66
2023/06/16 01:37:22;;;;;;;4.10;3.80;;;;;;;;;;5055585;28;20483;-67
2023/06/16 01:39:48;;;;;;;4.72;4.18;;;;;;;;;;5055807;28;20025;-67
2023/06/16 01:42:32;;;;;;;4.60;4.30;;;;;;;;;;5054378;28;20052;-67
2023/06/16 01:44:57;;;;;;;5.45;4.45;;;;;;;;;;5057393;28;20055;-66
2023/06/16 01:47:23;;;;;;;4.90;4.50;;;;;;;;;;5057405;28;20041;-66
2023/06/16 01:49:50;;;;;;;4.05;3.75;;;;;;;;;;5075657;28;20047;-67
2023/06/16 01:52:15;;;;;;;5.07;4.68;;;;;;;;;;5057304;28;20405;-65
2023/06/16 01:54:41;;;;;;;3.78;3.53;;;;;;;;;;5057323;28;20040;-64
2023/06/16 01:57:06;;;;;;;3.85;3.53;;;;;;;;;;5075470;28;20097;-63
2023/06/16 01:59:32;;;;;;;4.05;3.65;;;;;;;;;;5057147;28;20522;-64
2023/06/16 02:02:01;;;;;;;5.97;3.70;;;;;;;;;;5074606;28;20111;-61
2023/06/16 02:04:27;;;;;;;3.90;3.60;;;;;;;;;;5074979;28;20039;-61
2023/06/16 02:07:12;;;;;;;4.32;3.83;;;;;;;;;;5074644;28;20396;-61
2023/06/16 02:09:38;;;;;;;4.93;4.40;;;;;;;;;;5056858;28;20068;-61
2023/06/16 02:12:05;;;;;;;4.15;3.72;;;;;;;;;;5074911;28;20025;-60
2023/06/16 02:14:35;;;;;;;4.28;3.88;;;;;;;;;;5056963;28;20123;-62
2023/06/16 02:17:05;;;;;;;3.87;3.23;;;;;;;;;;5056605;28;20040;-63
2023/06/16 02:19:31;;;;;;;3.33;3.08;;;;;;;;;;5074766;28;20116;-64
2023/06/16 02:21:57;;;;;;;2.90;2.65;;;;;;;;;;5056853;28;20131;-63
2023/06/16 02:24:25;;;;;;;3.42;2.92;;;;;;;;;;5074594;28;20383;-62
2023/06/16 02:26:50;;;;;;;3.53;3.33;;;;;;;;;;5074529;28;20033;-63
2023/06/16 02:29:16;;;;;;;3.53;2.85;;;;;;;;;;5056215;28;20499;-63
2023/06/16 02:31:45;;;;;;;2.55;2.45;;;;;;;;;;5056333;28;20491;-64
2023/06/16 02:34:12;;;;;;;;;;;;;;;;;;5057058;28;20072;-64
2023/06/16 02:36:37;;;;;;;3.00;2.80;;;;;;;;;;5055205;28;19947;-64
2023/06/16 02:39:03;;;;;;;3.28;3.08;;;;;;;;;;5055650;28;20475;-65
2023/06/16 02:41:28;;;;;;;3.40;3.10;;;;;;;;;;5038076;28;20587;-65
2023/06/16 02:43:54;;;;;;;3.70;3.40;;;;;;;;;;5054630;28;20036;-65
2023/06/16 02:46:20;;;;;;;3.47;3.17;;;;;;;;;;5051201;28;20106;-62
2023/06/16 02:48:45;;;;;;;3.15;2.92;;;;;;;;;;5051068;28;20086;-62
2023/06/16 02:51:11;;;;;;;3.15;2.95;;;;;;;;;;5052633;28;20106;-62
2023/06/16 02:53:36;;;;;;;3.38;3.17;;;;;;;;;;5053817;28;20037;-62
2023/06/16 02:56:03;;;;;;;4.15;3.08;;;;;;;;;;5052554;28;20033;-62
2023/06/16 02:58:31;;;;;;;5.68;2.85;;;;;;;;;;5035026;28;20037;-62
2023/06/16 03:00:56;;;;;;;3.63;3.42;;;;;;;;;;5052400;28;20048;-61
2023/06/16 03:03:34;;;;;;;3.40;3.03;;;;;;;;;;5053986;28;20063;-62
2023/06/16 03:06:17;;;;;;;3.85;2.90;;;;;;;;;;5054008;28;20040;-62
2023/06/16 03:08:42;;;;;;;2.90;2.70;;;;;;;;;;5036010;28;20048;-62
2023/06/16 03:11:07;;;;;;;3.03;2.83;;;;;;;;;;5052758;28;20377;-62
2023/06/16 03:13:43;;;;;;;4.47;3.25;;;;;;;;;;5053922;28;20108;-61
2023/06/16 03:16:09;;;;;;;3.28;3.00;;;;;;;;;;5052429;28;20025;-62
2023/06/16 03:18:34;;;;;;;3.60;3.05;;;;;;;;;;5052296;28;20040;-62
2023/06/16 03:21:01;;;;;;;2.65;2.55;;;;;;;;;;5052299;28;20127;-62
2023/06/16 03:23:30;;;;;;;3.60;2.65;;;;;;;;;;5052210;28;20127;-62
2023/06/16 03:25:56;;;;;;;3.13;2.78;;;;;;;;;;5052210;28;20033;-62
2023/06/16 03:28:26;;;;;;;3.00;2.80;;;;;;;;;;5052319;28;20037;-61
2023/06/16 03:30:52;;;;;;;3.35;3.05;;;;;;;;;;5053084;28;20186;-61
2023/06/16 03:33:31;;;;;;;3.95;3.65;;;;;;;;;;5051812;28;20032;-60
2023/06/16 03:35:57;;;;;;;4.47;4.13;;;;;;;;;;5051691;28;20404;-62
2023/06/16 03:38:32;;;;;;;4.20;3.72;;;;;;;;;;5036543;28;20039;-61
2023/06/16 03:40:57;;;;;;;6.53;4.13;;;;;;;;;;5051954;28;20037;-61
2023/06/16 03:43:23;;;;;;;7.18;3.67;;;;;;;;;;5052129;28;20471;-60
2023/06/16 03:45:48;;;;;;;7.30;4.53;;;;;;;;;;5051816;28;20048;-61
2023/06/16 03:48:14;;;;;;;3.92;3.63;;;;;;;;;;5035096;28;20037;-64
2023/06/16 03:50:45;;;;;;;3.45;3.15;;;;;;;;;;5052016;28;20037;-63
2023/06/16 03:53:12;;;;;;;3.42;3.10;;;;;;;;;;5035040;28;20040;-64
2023/06/16 03:55:37;;;;;;;4.03;3.20;;;;;;;;;;5053400;28;20381;-64
2023/06/16 03:58:03;;;;;;;3.75;3.45;;;;;;;;;;5053117;28;20098;-56
2023/06/16 04:00:28;;;;;;;3.78;3.47;;;;;;;;;;5051977;28;20033;-67
2023/06/16 04:02:56;;;;;;;3.40;3.20;;;;;;;;;;5052398;28;20114;-63
2023/06/16 04:05:25;;;;;;;3.60;3.30;;;;;;;;;;5051885;28;20087;-65
2023/06/16 04:07:54;;;;;;;4.13;3.65;;;;;;;;;;5035576;28;20351;-64
2023/06/16 04:10:19;;;;;;;3.55;3.35;;;;;;;;;;5054426;28;20481;-68
2023/06/16 04:12:45;;;;;;;3.60;3.33;;;;;;;;;;5057557;28;20040;-68
2023/06/16 04:15:11;;;;;;;3.50;3.22;;;;;;;;;;5056445;28;20470;-64
2023/06/16 04:17:36;;;;;;;3.55;3.35;;;;;;;;;;5055856;28;20169;-64
2023/06/16 04:20:09;;;;;;;3.88;3.42;;;;;;;;;;5055905;28;20162;-64
2023/06/16 04:22:34;;;;;;;3.72;3.47;;;;;;;;;;5055909;28;20041;-64
2023/06/16 04:25:00;;;;;;;4.00;3.47;;;;;;;;;;5057060;28;20048;-65
2023/06/16 04:27:28;;;;;;;3.75;3.40;;;;;;;;;;5056283;28;20068;-65
2023/06/16 04:29:54;;;;;;;3.85;3.55;;;;;;;;;;5055853;28;20439;-65
2023/06/16 04:32:21;;;;;;;5.65;4.00;;;;;;;;;;5055719;28;20128;-65
2023/06/16 04:34:49;;;;;;;5.60;3.42;;;;;;;;;;5056078;28;20040;-65
2023/06/16 04:37:17;;;;;;;4.68;3.58;;;;;;;;;;5055207;28;20064;-64
2023/06/16 04:39:42;;;;;;;4.55;4.15;;;;;;;;;;5055468;28;20067;-64
2023/06/16 04:42:10;;;;;;;4.55;4.05;;;;;;;;;;5056102;28;20433;-64
2023/06/16 04:44:36;;;;;;;4.25;3.65;;;;;;;;;;5055720;28;20443;-64
2023/06/16 04:47:02;;;;;;;4.38;4.07;;;;;;;;;;5055232;28;20037;-64
2023/06/16 04:49:29;;;;;;;4.28;3.95;;;;;;;;;;5055922;28;20041;-64
2023/06/16 04:51:55;;;;;;;5.13;3.88;;;;;;;;;;5056505;28;20515;-65
2023/06/16 04:54:21;;;;;;;3.83;3.55;;;;;;;;;;5055298;28;20048;-66
2023/06/16 04:56:46;;;;;;;4.38;4.05;;;;;;;;;;5054927;28;20040;-71
2023/06/16 04:59:12;;;;;;;4.38;3.97;;;;;;;;;;5055248;28;20389;-66
2023/06/16 05:01:39;;;;;;;4.22;3.92;;;;;;;;;;5055308;28;20040;-67
2023/06/16 05:04:04;;;;;;;4.32;3.92;;;;;;;;;;5055624;28;20175;-66
2023/06/16 05:06:33;;;;;;;4.05;3.75;;;;;;;;;;5055609;28;20480;-66
2023/06/16 05:08:59;;;;;;;5.50;3.97;;;;;;;;;;5038583;28;20033;-66
2023/06/16 05:11:25;;;;;;;4.18;3.90;;;;;;;;;;5055024;28;20048;-66
2023/06/16 05:13:50;;;;;;;4.20;3.90;;;;;;;;;;5054941;28;20499;-66
2023/06/16 05:16:16;;;;;;;4.80;4.00;;;;;;;;;;5056269;28;20037;-66
2023/06/16 05:18:41;;;;;;;5.38;3.92;;;;;;;;;;5054379;28;20021;-65
2023/06/16 05:21:07;;;;;;;4.53;4.10;;;;;;;;;;5053689;28;20029;-65
2023/06/16 05:23:33;;;;;;;4.60;4.25;;;;;;;;;;5054076;28;20037;-65
2023/06/16 05:25:58;;;;;;;4.03;3.80;;;;;;;;;;5053092;28;20495;-65
2023/06/16 05:28:23;;;;;;;4.93;4.53;;;;;;;;;;5053483;28;20037;-65
2023/06/16 05:30:48;;;;;;;4.57;4.18;;;;;;;;;;5053428;28;20455;-65
2023/06/16 05:33:14;;;;;;;4.50;4.20;;;;;;;;;;5053459;28;20048;-65
2023/06/16 05:35:40;;;;;;;5.10;4.32;;;;;;;;;;5053383;28;20029;-65
2023/06/16 05:38:05;;;;;;;4.28;3.97;;;;;;;;;;5053734;28;20032;-64
2023/06/16 05:40:31;;;;;;;4.15;3.85;;;;;;;;;;5054427;28;20120;-65
2023/06/16 05:42:57;;;;;;;4.43;4.03;;;;;;;;;;5054944;28;20040;-65
2023/06/16 05:45:22;;;;;;;4.93;4.53;;;;;;;;;;5037601;28;20488;-65
2023/06/16 05:47:49;;;;;;;5.45;4.25;;;;;;;;;;5054516;28;20060;-65
2023/06/16 05:50:15;;;;;;;6.40;5.22;;;;;;;;;;5054830;28;20388;-65
2023/06/16 05:52:41;;;;;;;4.97;4.57;;;;;;;;;;5054235;28;20033;-65
2023/06/16 05:55:06;;;;;;;4.88;4.47;;;;;;;;;;5054137;28;20064;-65
2023/06/16 05:57:38;;;;;;;4.53;4.18;;;;;;;;;;5054094;28;20029;-65
2023/06/16 06:00:05;;;;;;;4.47;4.10;;;;;;;;;;5054022;28;20048;-65
2023/06/16 06:02:39;;;;;;;4.30;3.90;;;;;;;;;;5055271;28;20111;-65
2023/06/16 06:05:15;;;;;;;4.38;3.90;;;;;;;;;;5054515;28;20067;-65
2023/06/16 06:07:41;;;;;;;3.92;3.60;;;;;;;;;;5053856;28;20064;-65
2023/06/16 06:10:06;;;;;;;3.95;3.58;;;;;;;;;;5053860;28;20021;-65
2023/06/16 06:12:32;;;;;;;3.45;3.08;;;;;;;;;;5037294;28;20396;-65
2023/06/16 06:14:57;;;;;;;4.45;3.22;;;;;;;;;;5053726;28;20026;-65
2023/06/16 06:17:23;;;;;;;3.60;3.30;;;;;;;;;;5037124;28;20067;-65
2023/06/16 06:19:48;;;;;;;3.63;3.33;;;;;;;;;;5054231;28;20037;-64
2023/06/16 06:22:14;;;;;;;4.20;3.80;;;;;;;;;;5053596;28;20037;-64
2023/06/16 06:24:40;;;;;;;3.28;3.05;;;;;;;;;;5053896;28;20041;-65
2023/06/16 06:27:10;;;;;;;3.53;3.22;;;;;;;;;;5053743;28;20032;-65
2023/06/16 06:29:35;;;;;;;3.92;3.15;;;;;;;;;;5053482;28;20036;-64
2023/06/16 06:32:00;;;;;;;3.72;3.47;;;;;;;;;;5053447;28;20182;-65
2023/06/16 06:34:26;;;;;;;3.50;3.30;;;;;;;;;;5052650;28;20095;-64
2023/06/16 06:36:52;;;;;;;3.55;3.25;;;;;;;;;;5054885;28;20052;-64
2023/06/16 06:39:18;;;;;;;3.38;3.08;;;;;;;;;;5053282;28;20047;-65
2023/06/16 06:41:43;;;;;;;5.10;3.58;;;;;;;;;;5053287;28;20072;-65
2023/06/16 06:44:13;;;;;;;3.85;3.42;;;;;;;;;;5053492;28;20124;-64
2023/06/16 06:46:49;;;;;;;4.85;3.60;;;;;;;;;;5052930;28;20048;-65
2023/06/16 06:49:16;;;;;;;4.00;3.60;;;;;;;;;;5053092;28;20377;-65
2023/06/16 06:51:42;;;;;;;3.70;3.40;;;;;;;;;;5053321;28;20044;-65
2023/06/16 06:56:52;;;;;;;5.50;4.30;;;;;;;;;;5080794;22;20052;-65
2023/06/16 06:59:18;;;;;;;4.10;3.70;;;;;;;;;;5077571;22;20061;-64
2023/06/16 07:01:43;;;;;;;7.32;4.75;;;;;;;;;;5070191;22;20143;-64
2023/06/16 07:04:08;;;;;;;4.93;3.65;;;;;;;;;;5056176;28;20029;-65
2023/06/16 07:06:34;;;;;;;4.88;3.88;;;;;;;;;;5074226;28;20040;-64
2023/06/16 07:08:59;;;;;;;4.13;3.75;;;;;;;;;;5074041;28;20028;-66
2023/06/16 07:11:24;;;;;;;6.88;3.30;;;;;;;;;;5056282;28;20496;-66
2023/06/16 07:13:50;;;;;;;3.88;3.45;;;;;;;;;;5056371;28;20079;-66
2023/06/16 07:16:15;;;;;;;4.28;3.60;;;;;;;;;;5073891;28;20056;-66
2023/06/16 07:18:40;;;;;;;4.75;3.92;;;;;;;;;;5073863;28;20109;-66
2023/06/16 07:21:06;;;;;;;4.57;4.18;;;;;;;;;;5055878;28;20190;-66
2023/06/16 07:23:32;;;;;;;5.65;5.20;;;;;;;;;;5073835;28;20045;-66
2023/06/16 07:25:57;;;;;;;6.95;4.75;;;;;;;;;;5073763;28;20041;-66
2023/06/16 07:28:22;;;;;;;6.55;5.95;;;;;;;;;;5055752;28;20032;-66
2023/06/16 07:30:48;;;;;;;7.00;6.30;;;;;;;;;;5055899;28;20495;-66
2023/06/16 07:33:14;;;;;;;7.35;5.60;;;;;;;;;;5073964;28;20123;-66
2023/06/16 07:35:39;;;;;;;7.30;5.78;;;;;;;;;;5073661;28;20108;-66
2023/06/16 07:38:04;;;;;;;6.47;5.82;;;;;;;;;;5073602;28;20495;-66
2023/06/16 07:40:30;;;;;;;5.97;5.35;;;;;;;;;;5055649;28;20540;-66
2023/06/16 07:42:55;;;;;;;6.18;5.53;;;;;;;;;;5073555;28;20495;-66
2023/06/16 07:45:21;;;;;;;8.45;5.70;;;;;;;;;;5073484;28;20116;-66
2023/06/16 07:47:46;;;;;;;7.28;5.93;;;;;;;;;;5073467;28;20036;-66
2023/06/16 07:50:13;;;;;;;8.35;7.20;;;;;;;;;;5055624;28;20534;-66
2023/06/16 07:52:39;;;;;;;7.90;7.10;;;;;;;;;;5055630;28;20494;-66
2023/06/16 07:55:04;;;;;;;6.93;6.22;;;;;;;;;;5073716;28;20100;-66
2023/06/16 07:57:29;;;;;;;7.50;5.82;;;;;;;;;;5073679;28;20392;-66
2023/06/16 07:59:55;;;;;;;6.72;5.90;;;;;;;;;;5055357;28;20044;-66
2023/06/16 08:02:20;;;;;;;9.02;6.88;;;;;;;;;;5073312;28;20051;-66
2023/06/16 08:04:45;;;;;;;7.60;6.82;;;;;;;;;;5055356;28;20090;-66
2023/06/16 08:07:11;;;;;;;8.57;6.32;;;;;;;;;;5073543;28;20029;-66
2023/06/16 08:09:36;;;;;;;8.27;6.07;;;;;;;;;;5055440;28;20535;-66
2023/06/16 08:12:02;;;;;;;8.68;6.40;;;;;;;;;;5073275;28;20039;-66
2023/06/16 08:14:30;;;;;;;5.50;5.07;;;;;;;;;;5073519;28;20021;-66
2023/06/16 08:16:55;;;;;;;5.90;5.18;;;;;;;;;;5073242;28;20111;-66
2023/06/16 08:19:20;;;;;;;5.10;4.70;;;;;;;;;;5073243;28;20066;-66
2023/06/16 08:21:45;;;;;;;5.55;4.80;;;;;;;;;;5073444;28;20067;-66
2023/06/16 08:24:11;;;;;;;5.28;4.70;;;;;;;;;;5073170;28;20447;-66
2023/06/16 08:26:36;;;;;;;10.20;6.80;;;;;;;;;;5073329;28;20036;-66
2023/06/16 08:29:03;;;;;;;10.65;6.15;;;;;;;;;;5073688;28;20070;-66
2023/06/16 08:31:29;;;;;;;5.75;5.15;;;;;;;;;;5073064;28;20047;-66
2023/06/16 08:33:54;;;;;;;5.25;4.75;;;;;;;;;;5073614;28;20112;-66
2023/06/16 08:36:22;;;;;;;9.18;6.07;;;;;;;;;;5073026;28;20438;-66
2023/06/16 08:38:48;;;;;;;7.25;6.55;;;;;;;;;;5073009;28;20072;-66
2023/06/16 08:41:16;;;;;;;7.50;6.78;;;;;;;;;;5055046;28;20068;-67
2023/06/16 08:43:42;;;;;;;7.57;5.65;;;;;;;;;;5073259;28;20054;-66
2023/06/16 08:46:10;;;;;;;6.25;5.68;;;;;;;;;;5073225;28;20032;-66
2023/06/16 08:48:36;;;;;;;7.53;6.80;;;;;;;;;;5055379;28;20392;-66
2023/06/16 08:51:03;;;;;;;11.57;7.38;;;;;;;;;;5072892;28;20031;-66
2023/06/16 08:53:31;;;;;;;12.63;6.70;;;;;;;;;;5072887;28;20043;-66
2023/06/16 08:55:57;;;;;;;9.48;7.43;;;;;;;;;;5071653;28;20048;-66
2023/06/16 08:58:22;;;;;;;8.95;7.95;;;;;;;;;;5076769;28;20068;-66
2023/06/16 09:00:48;;;;;;;9.38;8.40;;;;;;;;;;5076277;28;20584;-66
2023/06/16 09:03:13;;;;;;;10.48;7.88;;;;;;;;;;5076656;28;20047;-66
2023/06/16 09:05:38;;;;;;;9.43;8.00;;;;;;;;;;5076384;28;20068;-66
2023/06/16 09:08:05;;;;;;;8.80;7.85;;;;;;;;;;5058289;28;20040;-66
2023/06/16 09:10:30;;;;;;;8.93;8.02;;;;;;;;;;5058681;28;20040;-66
2023/06/16 09:12:58;;;;;;;7.63;6.85;;;;;;;;;;5076223;28;20063;-66
2023/06/16 09:15:23;;;;;;;8.48;7.15;;;;;;;;;;5076167;28;20039;-66
2023/06/16 09:17:49;;;;;;;7.03;6.38;;;;;;;;;;5076156;28;20462;-66
2023/06/16 09:20:15;;;;;;;8.40;7.50;;;;;;;;;;5076080;28;20575;-66
2023/06/16 09:22:40;;;;;;;5.45;5.03;;;;;;;;;;5074778;28;20127;-65
2023/06/16 09:25:07;;;;;;;5.35;4.95;;;;;;;;;;5075989;28;20033;-66
2023/06/16 09:27:43;;;;;;;8.10;6.65;;;;;;;;;;5076137;28;20119;-66
2023/06/16 09:30:13;;;;;;;9.48;6.90;;;;;;;;;;5076184;28;20043;-66
2023/06/16 09:32:41;;;;;;;7.57;6.65;;;;;;;;;;5058532;28;20029;-66
2023/06/16 09:35:16;;;;;;;6.53;6.03;;;;;;;;;;5075784;28;20047;-66
2023/06/16 09:37:41;;;;;;;7.63;6.70;;;;;;;;;;5075787;28;20055;-66
2023/06/16 09:40:08;;;;;;;6.60;6.00;;;;;;;;;;5075713;28;20472;-66
2023/06/16 09:42:33;;;;;;;6.03;5.53;;;;;;;;;;5058362;28;20121;-66
2023/06/16 09:44:59;;;;;;;7.05;6.40;;;;;;;;;;5057692;28;20032;-66
2023/06/16 09:47:24;;;;;;;7.53;5.70;;;;;;;;;;5057669;28;20120;-66
2023/06/16 09:49:52;;;;;;;6.40;5.63;;;;;;;;;;5075827;28;20227;-66
2023/06/16 09:52:25;;;;;;;6.57;5.88;;;;;;;;;;5075490;28;20040;-66
2023/06/16 09:54:50;;;;;;;5.65;5.15;;;;;;;;;;5074196;28;20029;-66
2023/06/16 09:57:17;;;;;;;7.65;5.70;;;;;;;;;;5075362;28;20039;-66
2023/06/16 09:59:42;;;;;;;6.38;5.78;;;;;;;;;;5074126;28;20047;-66
2023/06/16 10:02:07;;;;;;;5.22;4.72;;;;;;;;;;5075038;28;20079;-66
2023/06/16 10:04:33;;;;;;;6.35;3.70;;;;;;;;;;5075510;28;20094;-66
2023/06/16 10:07:02;;;;;;;5.05;4.68;;;;;;;;;;5075189;28;20094;-66
2023/06/16 10:09:44;;;;;;;5.93;5.43;;;;;;;;;;5075136;28;20040;-66
2023/06/16 10:12:12;;;;;;;5.32;4.78;;;;;;;;;;5075338;28;20063;-66
2023/06/16 10:14:38;;;;;;;7.68;6.90;;;;;;;;;;5075007;28;20522;-66
2023/06/16 10:17:06;;;;;;;7.25;6.55;;;;;;;;;;5074974;28;20040;-66
2023/06/16 10:19:33;;;;;;;8.18;7.38;;;;;;;;;;5074901;28;20056;-66
2023/06/16 10:21:59;;;;;;;6.75;6.13;;;;;;;;;;5074885;28;20488;-66
2023/06/16 10:24:25;;;;;;;7.45;6.75;;;;;;;;;;5074828;28;20047;-66
2023/06/16 10:26:50;;;;;;;6.25;5.70;;;;;;;;;;5075279;28;20028;-66
2023/06/16 10:29:17;;;;;;;8.27;6.35;;;;;;;;;;5075008;28;20468;-66
2023/06/16 10:31:43;;;;;;;7.78;7.07;;;;;;;;;;5074993;28;20483;-66
2023/06/16 10:34:16;;;;;;;7.90;7.18;;;;;;;;;;5074643;28;20499;-66
2023/06/16 10:36:41;;;;;;;6.68;6.07;;;;;;;;;;5074575;28;20037;-66
2023/06/16 10:39:07;;;;;;;6.95;6.15;;;;;;;;;;5074581;28;20141;-66
2023/06/16 10:41:33;;;;;;;9.02;5.70;;;;;;;;;;5074449;28;20037;-66
2023/06/16 10:44:17;;;;;;;7.13;6.43;;;;;;;;;;5056937;28;20028;-66
2023/06/16 10:46:42;;;;;;;5.93;5.45;;;;;;;;;;5073083;28;20535;-66
2023/06/16 10:49:08;;;;;;;5.93;5.32;;;;;;;;;;5073100;28;20037;-66
2023/06/16 10:51:39;;;;;;;5.90;5.50;;;;;;;;;;5074603;28;20036;-66
2023/06/16 10:54:06;;;;;;;6.18;5.45;;;;;;;;;;5074308;28;20041;-66
2023/06/16 10:56:46;;;;;;;5.38;4.88;;;;;;;;;;5074472;28;20486;-66
2023/06/16 10:59:15;;;;;;;8.30;4.78;;;;;;;;;;5072920;28;20484;-66
2023/06/16 11:01:46;;;;;;;6.15;5.65;;;;;;;;;;5052757;28;20481;-66
2023/06/16 11:04:11;;;;;;;;;;;;;;;;;;5053293;28;20412;-66
2023/06/16 11:06:55;;;;;;;6.27;5.53;;;;;;;;;;5054032;28;19909;-66
2023/06/16 11:09:21;;;;;;;6.85;6.25;;;;;;;;;;5054594;28;20052;-66
2023/06/16 11:11:46;;;;;;;6.00;5.38;;;;;;;;;;5053124;28;20040;-66
2023/06/16 11:14:12;;;;;;;5.13;4.60;;;;;;;;;;5053980;28;20043;-66
2023/06/16 11:16:37;;;;;;;5.60;5.13;;;;;;;;;;5053971;28;20029;-66
2023/06/16 11:19:04;;;;;;;6.22;5.70;;;;;;;;;;5053334;28;20510;-67
2023/06/16 11:21:30;;;;;;;7.28;5.45;;;;;;;;;;5054118;28;20033;-66
2023/06/16 11:24:06;;;;;;;5.80;5.30;;;;;;;;;;5054138;28;20029;-66
2023/06/16 11:26:31;;;;;;;5.32;4.82;;;;;;;;;;5052538;28;20033;-66
2023/06/16 11:28:57;;;;;;;5.38;4.90;;;;;;;;;;5069168;28;20369;-66
2023/06/16 11:31:22;;;;;;;5.95;4.40;;;;;;;;;;5053725;28;20041;-66
2023/06/16 11:33:47;;;;;;;5.05;4.55;;;;;;;;;;5054241;28;20120;-66
2023/06/16 11:36:17;;;;;;;5.47;4.97;;;;;;;;;;5069121;28;20041;-66
2023/06/16 11:38:43;;;;;;;5.22;4.82;;;;;;;;;;5052579;28;20120;-66
2023/06/16 11:41:22;;;;;;;5.38;4.88;;;;;;;;;;5053542;28;20043;-66
2023/06/16 11:43:47;;;;;;;6.45;5.47;;;;;;;;;;5068983;28;20033;-66
2023/06/16 11:46:14;;;;;;;7.00;5.65;;;;;;;;;;5053484;28;20052;-66
2023/06/16 11:48:40;;;;;;;6.80;6.20;;;;;;;;;;5053748;28;20040;-66
2023/06/16 11:51:06;;;;;;;6.20;5.75;;;;;;;;;;5053732;28;20033;-66
2023/06/16 11:53:34;;;;;;;5.50;5.10;;;;;;;;;;5053459;28;20036;-66
2023/06/16 11:56:00;;;;;;;6.45;5.38;;;;;;;;;;5053657;28;20040;-66
2023/06/16 11:58:28;;;;;;;7.00;6.40;;;;;;;;;;5053968;28;20033;-66
2023/06/16 12:01:00;;;;;;;6.30;5.70;;;;;;;;;;5056742;28;20040;-66
2023/06/16 12:03:29;;;;;;;7.88;6.55;;;;;;;;;;5072966;28;20064;-66
2023/06/16 12:05:56;;;;;;;5.93;5.53;;;;;;;;;;5072123;28;20399;-66
2023/06/16 12:08:40;;;;;;;5.50;5.07;;;;;;;;;;5073197;28;20052;-66
2023/06/16 12:11:05;;;;;;;10.30;6.50;;;;;;;;;;5073584;28;20040;-66
2023/06/16 12:13:34;;;;;;;7.03;6.43;;;;;;;;;;5073553;28;20461;-65
2023/06/16 12:16:00;;;;;;;7.15;6.55;;;;;;;;;;5073232;28;20392;-65
2023/06/16 12:18:26;;;;;;;6.15;5.60;;;;;;;;;;5073231;28;20488;-66
2023/06/16 12:20:52;;;;;;;8.20;6.50;;;;;;;;;;5055696;28;20127;-65
2023/06/16 12:23:18;;;;;;;7.28;6.57;;;;;;;;;;5073480;28;20071;-65
2023/06/16 12:25:43;;;;;;;6.88;6.38;;;;;;;;;;5055214;28;20040;-65
2023/06/16 12:28:08;;;;;;;5.63;4.82;;;;;;;;;;5073055;28;20043;-65
2023/06/16 12:30:34;;;;;;;7.28;6.55;;;;;;;;;;5073399;28;20036;-65
2023/06/16 12:33:09;;;;;;;7.03;6.43;;;;;;;;;;5058774;28;20071;-65
2023/06/16 12:35:35;;;;;;;5.95;5.35;;;;;;;;;;5077204;28;20033;-65
2023/06/16 12:38:01;;;;;;;9.50;6.80;;;;;;;;;;5077219;28;20028;-65
2023/06/16 12:40:30;;;;;;;8.63;7.22;;;;;;;;;;5076845;28;20395;-65
2023/06/16 12:42:55;;;;;;;8.15;7.32;;;;;;;;;;5077042;28;20537;-65
2023/06/16 12:45:20;;;;;;;7.32;6.72;;;;;;;;;;5076746;28;20098;-65
2023/06/16 12:47:45;;;;;;;7.70;6.90;;;;;;;;;;5077147;28;20044;-65
2023/06/16 12:50:11;;;;;;;8.10;6.82;;;;;;;;;;5076660;28;20033;-65
2023/06/16 12:52:37;;;;;;;8.57;6.95;;;;;;;;;;5076605;28;20125;-65
2023/06/16 12:55:03;;;;;;;6.68;5.95;;;;;;;;;;5076844;28;20479;-65
2023/06/16 12:57:29;;;;;;;8.85;7.18;;;;;;;;;;5076815;28;20115;-65
2023/06/16 12:59:55;;;;;;;6.97;6.38;;;;;;;;;;5058957;28;20115;-65
2023/06/16 13:02:20;;;;;;;6.50;5.90;;;;;;;;;;5076343;28;20048;-65
2023/06/16 13:04:45;;;;;;;6.90;6.38;;;;;;;;;;5076671;28;20060;-65
2023/06/16 13:07:12;;;;;;;7.55;6.85;;;;;;;;;;5075701;28;20399;-65
2023/06/16 13:09:37;;;;;;;7.13;6.53;;;;;;;;;;5042040;28;20024;-65
2023/06/16 13:12:03;;;;;;;6.93;6.43;;;;;;;;;;5076243;28;20404;-65
2023/06/16 13:14:29;;;;;;;9.13;6.85;;;;;;;;;;5076446;28;20145;-65
2023/06/16 13:16:55;;;;;;;7.72;6.57;;;;;;;;;;5058323;28;20501;-65
2023/06/16 13:19:20;;;;;;;7.03;6.43;;;;;;;;;;5076398;28;20045;-65
2023/06/16 13:21:45;;;;;;;6.72;6.18;;;;;;;;;;5076097;28;20035;-65
2023/06/16 13:24:11;;;;;;;5.65;5.13;;;;;;;;;;5059005;28;20484;-65
2023/06/16 13:26:37;;;;;;;7.00;6.47;;;;;;;;;;5075932;28;20464;-65
2023/06/16 13:29:03;;;;;;;6.45;5.95;;;;;;;;;;5076230;28;20047;-65
2023/06/16 13:31:28;;;;;;;8.15;6.22;;;;;;;;;;5076180;28;20041;-65
2023/06/16 13:33:53;;;;;;;6.82;6.22;;;;;;;;;;5075895;28;20056;-65
2023/06/16 13:36:21;;;;;;;4.80;4.32;;;;;;;;;;5075843;28;20116;-65
2023/06/16 13:38:47;;;;;;;4.70;4.30;;;;;;;;;;5075763;28;20025;-65
2023/06/16 13:41:13;;;;;;;6.55;5.95;;;;;;;;;;5075782;28;20044;-65
2023/06/16 13:43:43;;;;;;;6.93;6.40;;;;;;;;;;5075427;28;20037;-65
2023/06/16 13:46:08;;;;;;;6.53;5.95;;;;;;;;;;5075946;28;20041;-65
2023/06/16 13:48:33;;;;;;;5.85;5.43;;;;;;;;;;5075517;28;20085;-65
2023/06/16 13:50:59;;;;;;;5.03;4.63;;;;;;;;;;5057609;28;20461;-65
2023/06/16 13:53:24;;;;;;;5.18;4.82;;;;;;;;;;5057950;28;20036;-65
2023/06/16 13:55:50;;;;;;;7.80;5.95;;;;;;;;;;5074836;28;20033;-65
2023/06/16 13:58:15;;;;;;;7.03;6.35;;;;;;;;;;5074480;28;20025;-65
2023/06/16 14:00:41;;;;;;;7.70;6.10;;;;;;;;;;5075471;28;20036;-65
2023/06/16 14:03:07;;;;;;;5.93;5.47;;;;;;;;;;5057896;28;20040;-65
2023/06/16 14:05:32;;;;;;;5.95;5.55;;;;;;;;;;5057632;28;20043;-65
2023/06/16 14:07:58;;;;;;;5.20;4.70;;;;;;;;;;5040724;28;20083;-65
2023/06/16 14:10:23;;;;;;;6.43;5.82;;;;;;;;;;5075117;28;20043;-64
2023/06/16 14:12:48;;;;;;;9.02;6.43;;;;;;;;;;5057576;28;20131;-65
2023/06/16 14:15:14;;;;;;;6.45;5.85;;;;;;;;;;5075626;28;20078;-66
2023/06/16 14:17:42;;;;;;;7.45;6.70;;;;;;;;;;5075283;28;20075;-66
2023/06/16 14:20:09;;;;;;;16.13;14.50;;;;;;;;;;5075404;28;20037;-66
2023/06/16 14:22:35;;;;;;;12.85;11.63;;;;;;;;;;5074820;28;20044;-66
2023/06/16 14:25:01;;;;;;;6.70;6.10;;;;;;;;;;5074806;28;20043;-66
2023/06/16 14:27:26;;;;;;;7.85;5.97;;;;;;;;;;5073784;28;20037;-65
2023/06/16 14:29:52;;;;;;;6.90;6.20;;;;;;;;;;5040249;28;20127;-65
2023/06/16 14:32:17;;;;;;;5.65;4.95;;;;;;;;;;5090134;22;21800;-66
2023/06/16 14:34:42;;;;;;;6.40;5.90;;;;;;;;;;5094502;28;20043;-65
2023/06/16 14:37:08;;;;;;;4.85;4.45;;;;;;;;;;5076949;28;20036;-66
2023/06/16 14:39:33;;;;;;;7.15;6.32;;;;;;;;;;5094897;28;20036;-66
2023/06/16 14:41:58;;;;;;;6.88;6.32;;;;;;;;;;5076426;28;20051;-65
2023/06/16 14:44:24;;;;;;;5.35;4.90;;;;;;;;;;5093687;28;20076;-67